createdAt,value
2019-02-22T00:03:46.899Z,52.33
2019-02-22T00:13:47.596Z,53.83
2019-02-22T00:23:52.506Z,61.90
2019-02-22T00:33:53.386Z,58.00
2019-02-22T00:43:54.071Z,58.13
2019-02-22T00:53:54.754Z,55.90
2019-02-22T01:03:57.476Z,55.43
2019-02-22T01:14:00.530Z,59.03
2019-02-22T01:24:01.519Z,56.33
2019-02-22T01:34:02.194Z,65.10
2019-02-22T01:44:04.152Z,86.13
2019-02-22T01:54:04.894Z,87.37
2019-02-22T02:04:05.565Z,89.40
2019-02-22T02:14:06.243Z,99.70
2019-02-22T02:24:06.927Z,103.50
2019-02-22T02:34:08.044Z,110.90
2019-02-22T02:44:09.951Z,117.20
2019-02-22T02:54:11.639Z,117.23
2019-02-22T03:04:12.337Z,122.50
2019-02-22T03:14:13.335Z,123.10
2019-02-22T03:24:24.149Z,127.40
2019-02-22T03:34:25.021Z,117.77
2019-02-22T03:44:32.113Z,106.13
2019-02-22T03:54:34.096Z,101.27
2019-02-22T04:04:36.026Z,94.50
2019-02-22T04:14:36.700Z,88.90
2019-02-22T04:24:37.602Z,87.17
2019-02-22T04:34:38.481Z,88.20
2019-02-22T04:44:39.452Z,82.17
2019-02-22T04:54:40.349Z,73.70
2019-02-22T05:04:41.272Z,68.40
2019-02-22T05:14:42.259Z,71.07
2019-02-22T05:24:43.225Z,70.03
2019-02-22T05:34:44.155Z,61.17
2019-02-22T05:44:45.117Z,59.07
2019-02-22T05:54:46.077Z,55.87
2019-02-22T06:04:47.115Z,49.33
2019-02-22T06:14:49.117Z,47.57
2019-02-22T06:24:49.990Z,44.93
2019-02-22T06:34:50.718Z,45.60
2019-02-22T06:44:51.715Z,38.47
2019-02-22T06:54:52.689Z,36.67
2019-02-22T07:04:53.454Z,33.43
2019-02-22T07:14:54.125Z,28.87
2019-02-22T07:24:55.017Z,34.97
2019-02-22T07:34:55.970Z,32.37
2019-02-22T07:44:56.908Z,32.93
2019-02-22T07:54:57.561Z,36.83
2019-02-22T08:04:58.291Z,31.47
2019-02-22T08:14:59.112Z,34.80
2019-02-22T08:24:59.738Z,35.23
2019-02-22T08:35:00.395Z,37.80
2019-02-22T08:45:03.816Z,37.03
2019-02-22T08:55:04.982Z,29.10
2019-02-22T09:05:07.359Z,29.17
2019-02-22T09:15:09.077Z,30.13
2019-02-22T09:25:09.946Z,21.83
2019-02-22T09:35:10.931Z,19.77
2019-02-22T09:45:11.886Z,18.53
2019-02-22T09:55:12.525Z,13.60
2019-02-22T10:05:13.397Z,8.40
2019-02-22T10:15:14.333Z,9.43
2019-02-22T10:25:15.210Z,5.23
2019-02-22T10:35:16.095Z,5.53
2019-02-22T10:45:17.012Z,3.47
2019-02-22T10:55:17.742Z,1.27
2019-02-22T11:05:19.587Z,2.43
2019-02-22T11:15:20.231Z,3.43
2019-02-22T11:25:21.093Z,1.73
2019-02-22T11:35:23.562Z,4.30
2019-02-22T11:45:24.581Z,2.10
2019-02-22T11:55:25.242Z,2.47
2019-02-22T12:05:26.168Z,1.63
2019-02-22T12:15:26.855Z,2.97
2019-02-22T12:25:27.719Z,1.70
2019-02-22T12:35:30.814Z,1.33
2019-02-22T12:45:31.493Z,2.67
2019-02-22T12:55:32.220Z,1.47
2019-02-22T13:05:33.884Z,3.33
2019-02-22T13:15:34.572Z,3.63
2019-02-22T13:25:35.265Z,2.90
2019-02-22T13:35:36.572Z,3.17
2019-02-22T13:45:37.832Z,4.07
2019-02-22T13:55:43.337Z,3.20
2019-02-22T14:05:44.014Z,6.13
2019-02-22T14:15:44.718Z,3.37
2019-02-22T14:25:45.421Z,2.70
2019-02-22T14:35:49.189Z,4.77
2019-02-22T14:45:53.677Z,6.73
2019-02-22T14:55:54.412Z,5.20
2019-02-22T15:05:55.379Z,4.57
2019-02-22T15:16:00.883Z,3.70
2019-02-22T15:25:58.831Z,7.17
2019-02-22T15:35:59.437Z,7.57
2019-02-22T15:46:11.510Z,5.60
2019-02-22T15:56:02.698Z,6.27
2019-02-22T16:06:03.697Z,6.13
2019-02-22T16:16:04.929Z,4.83
2019-02-22T16:26:05.724Z,4.77
2019-02-22T16:36:06.410Z,5.50
2019-02-22T16:46:07.092Z,7.80
2019-02-22T16:56:13.612Z,6.77
2019-02-22T17:06:14.365Z,9.67
2019-02-22T17:47:43.468Z,23.90
2019-02-22T17:57:44.375Z,19.73
2019-02-22T18:07:45.228Z,16.23
2019-02-22T18:17:46.321Z,14.93
2019-02-22T18:27:47.169Z,14.17
2019-02-22T18:37:51.831Z,16.30
2019-02-22T18:47:52.798Z,16.27
2019-02-22T18:57:53.473Z,24.53
2019-02-22T19:07:54.111Z,17.10
2019-02-22T19:17:54.795Z,20.03
2019-02-22T19:27:55.564Z,20.90
2019-02-22T19:37:56.287Z,19.70
2019-02-22T19:48:00.009Z,20.97
2019-02-22T19:58:00.979Z,19.90
2019-02-22T20:08:07.715Z,19.27
2019-02-22T20:18:09.713Z,20.67
2019-02-22T20:28:10.403Z,21.33
2019-02-22T20:38:11.197Z,20.10
2019-02-22T20:48:12.227Z,25.13
2019-02-22T20:58:12.935Z,23.37
2019-02-22T21:08:14.046Z,24.67
2019-02-22T21:18:16.549Z,23.63
2019-02-22T21:28:17.368Z,24.07
2019-02-22T21:38:18.126Z,22.47
2019-02-22T21:48:27.275Z,20.90
2019-02-22T21:58:21.347Z,26.30
2019-02-22T22:08:22.310Z,23.23
2019-02-22T22:18:23.267Z,23.87
2019-02-22T22:28:24.791Z,21.93
2019-02-22T22:38:25.525Z,24.20
2019-02-22T22:48:26.556Z,26.07
2019-02-22T22:58:27.231Z,21.63
2019-02-22T23:08:31.102Z,26.83
2019-02-22T23:18:32.632Z,26.67
2019-02-22T23:28:33.502Z,27.33
2019-02-22T23:38:34.569Z,23.27
2019-02-22T23:48:36.133Z,23.43
2019-02-22T23:58:37.656Z,19.80
